Time;durP1;ratioP1;P1;durP2;ratioP2;P2;SDS_P1;SDS_P2;PMS_P1;PMS_P2;Temp;Humidity;BMP_temperature;BMP_pressure;BME280_temperature;BME280_humidity;BME280_pressure;Samples;Min_cycle;Max_cycle;Signal;HPM_P1;HPM_P2
2022/05/20 00:00:13;;;;;;;5.03;3.35;;;;;;;;;;6128965;23;20018;-61
2022/05/20 00:02:39;;;;;;;4.50;2.90;;;;;;;;;;6155519;23;20298;-61
2022/05/20 00:05:06;;;;;;;4.82;3.33;;;;;;;;;;6155446;23;20010;-62
2022/05/20 00:07:32;;;;;;;5.85;3.00;;;;;;;;;;6155094;23;20409;-61
2022/05/20 00:09:58;;;;;;;5.03;3.03;;;;;;;;;;6155035;23;20009;-62
2022/05/20 00:12:24;;;;;;;6.50;3.20;;;;;;;;;;6155677;23;20053;-61
2022/05/20 00:14:50;;;;;;;5.75;3.28;;;;;;;;;;6155116;23;20040;-61
2022/05/20 00:17:16;;;;;;;5.15;3.22;;;;;;;;;;6155693;23;20324;-62
2022/05/20 00:19:42;;;;;;;7.75;3.38;;;;;;;;;;6155638;23;20059;-61
2022/05/20 00:22:08;;;;;;;4.70;3.15;;;;;;;;;;6156455;23;20008;-61
2022/05/20 00:25:45;;;;;;;7.28;3.40;;;;;;;;;;6156766;23;20009;-62
2022/05/20 00:27:21;;;;;;;5.28;3.92;;;;;;;;;;6157080;23;20410;-62
2022/05/20 00:29:47;;;;;;;6.32;4.70;;;;;;;;;;6156455;23;20052;-61
2022/05/20 00:32:13;;;;;;;6.53;3.70;;;;;;;;;;6130613;23;20024;-62
2022/05/20 00:34:39;;;;;;;5.32;3.33;;;;;;;;;;6156974;23;20028;-62
2022/05/20 00:37:05;;;;;;;15.02;5.57;;;;;;;;;;6156609;23;20012;-63
2022/05/20 00:39:31;;;;;;;5.47;3.47;;;;;;;;;;6157041;23;20005;-61
2022/05/20 00:41:57;;;;;;;3.67;3.13;;;;;;;;;;6157151;23;20044;-62
2022/05/20 00:44:23;;;;;;;5.35;3.22;;;;;;;;;;6157161;23;20014;-63
2022/05/20 00:46:49;;;;;;;10.07;3.58;;;;;;;;;;6156824;23;20005;-61
2022/05/20 00:49:16;;;;;;;5.97;3.28;;;;;;;;;;6156847;23;20317;-63
2022/05/20 00:51:44;;;;;;;5.63;3.25;;;;;;;;;;6156959;23;20349;-62
2022/05/20 00:54:13;;;;;;;3.90;3.10;;;;;;;;;;6156574;23;20460;-63
2022/05/20 00:56:42;;;;;;;3.85;2.97;;;;;;;;;;6156774;23;19998;-63
2022/05/20 00:59:11;;;;;;;5.10;3.20;;;;;;;;;;6156636;23;20005;-63
2022/05/20 01:01:37;;;;;;;4.72;3.13;;;;;;;;;;6156683;23;20028;-63
2022/05/20 01:04:05;;;;;;;3.63;2.63;;;;;;;;;;6156896;23;20017;-62
2022/05/20 01:06:31;;;;;;;8.90;6.47;;;;;;;;;;6156318;23;19998;-63
2022/05/20 01:08:58;;;;;;;8.45;4.57;;;;;;;;;;6156790;23;20052;-63
2022/05/20 01:11:25;;;;;;;5.07;3.15;;;;;;;;;;6156640;23;20072;-64
2022/05/20 01:13:51;;;;;;;4.57;3.20;;;358.80;2022.40;;;;;;6156595;23;20506;-63
2022/05/20 01:16:17;;;;;;;7.78;3.42;;;358.80;2022.40;;;;;;6156595;23;20002;-62
2022/05/20 01:18:46;;;;;;;6.50;3.60;;;358.80;2022.40;;;;;;6156941;23;20344;-62
2022/05/20 01:21:12;;;;;;;5.75;3.90;;;358.80;1996.80;;;;;;6156521;23;19997;-63
2022/05/20 01:23:38;;;;;;;3.60;2.85;;;358.80;2022.40;;;;;;6156658;23;20012;-62
2022/05/20 01:26:06;;;;;;;5.38;3.05;;;358.80;2022.40;;;;;;6156674;23;20376;-63
2022/05/20 01:28:33;;;;;;;7.30;3.10;;;358.70;2022.40;;;;;;6156772;23;20028;-63
2022/05/20 01:31:01;;;;;;;3.90;3.15;;;358.70;2022.40;;;;;;6155930;23;20018;-64
2022/05/20 01:33:32;;;;;;;4.25;3.20;;;358.50;2048.00;;;;;;6156237;23;20001;-62
2022/05/20 01:35:59;;;;;;;5.38;3.10;;;;;;;;;;6156078;23;20082;-64
2022/05/20 01:38:26;;;;;;;4.80;2.70;;;;;;;;;;6156699;23;20012;-65
2022/05/20 01:40:52;;;;;;;3.58;3.00;;;;;;;;;;6156482;23;19997;-64
2022/05/20 01:43:27;;;;;;;4.22;2.90;;;;;;;;;;6156292;23;20496;-64
2022/05/20 01:46:09;;;;;;;4.40;2.53;;;;;;;;;;6156057;23;20093;-64
2022/05/20 01:48:38;;;;;;;16.75;9.60;;;;;;;;;;6156251;23;20060;-64
2022/05/20 01:51:06;;;;;;;10.60;5.90;;;;;;;;;;6156252;23;20002;-62
2022/05/20 01:53:39;;;;;;;6.72;4.20;;;;;;;;;;6156367;23;20001;-65
2022/05/20 01:56:17;;;;;;;6.38;2.83;;;;;;;;;;6156204;23;20005;-62
2022/05/20 01:59:09;;;;;;;5.22;2.97;;;;;;;;;;6156553;23;20009;-66
2022/05/20 02:01:47;;;;;;;3.28;2.45;;;;;;;;;;6151012;23;20010;-65
2022/05/20 02:04:16;;;;;;;15.23;7.07;;;;;;;;;;6156282;23;20013;-65
2022/05/20 02:06:46;;;;;;;5.35;3.63;;;;;;;;;;6156262;23;19997;-65
2022/05/20 02:09:21;;;;;;;4.32;2.97;;;;;;;;;;6156154;23;20005;-64
2022/05/20 02:11:49;;;;;;;12.02;7.03;;;;;;;;;;6155833;23;20421;-64
2022/05/20 02:14:21;;;;;;;9.18;5.60;;;;;;;;;;6156118;23;20329;-64
2022/05/20 02:17:22;;;;;;;4.93;3.60;;;333.60;2048.00;;;;;;6156165;23;20017;-65
2022/05/20 02:19:59;;;;;;;6.65;3.45;;;333.60;2048.00;;;;;;6037322;23;20106;-62
2022/05/20 02:22:27;;;;;;;16.05;9.10;;;;;;;;;;6037401;23;20007;-63
2022/05/20 02:24:54;;;;;;;5.15;3.60;;;;;;;;;;6037046;23;20013;-63
2022/05/20 02:27:23;;;;;;;5.68;3.45;;;;;;;;;;6037423;23;20072;-63
2022/05/20 02:29:52;;;;;;;5.53;3.60;;;;;;;;;;6036545;23;20426;-62
2022/05/20 02:32:21;;;;;;;6.97;4.20;;;;;;;;;;6037229;23;20067;-62
2022/05/20 02:34:47;;;;;;;6.10;3.42;;;;;;;;;;6037023;23;20316;-64
2022/05/20 02:37:18;;;;;;;3.90;3.13;;;;;;;;;;6036892;23;20030;-61
2022/05/20 02:39:44;;;;;;;10.55;4.45;;;;;;;;;;6037071;23;20012;-63
2022/05/20 02:42:10;;;;;;;6.40;4.15;;;;;;;;;;6037018;23;20008;-62
2022/05/20 02:44:36;;;;;;;8.27;3.17;;;;;;;;;;6036534;23;20015;-62
2022/05/20 02:47:03;;;;;;;4.25;2.47;;;;;;;;;;6037074;23;20035;-64
2022/05/20 02:49:30;;;;;;;5.78;2.85;;;;;;;;;;6036907;23;20011;-62
2022/05/20 02:51:56;;;;;;;8.35;2.78;;;;;;;;;;6036944;23;20003;-63
2022/05/20 02:54:22;;;;;;;3.47;2.25;;;;;;;;;;6037054;23;20043;-63
2022/05/20 02:56:48;;;;;;;6.45;3.30;;;;;;;;;;6108020;23;20044;-63
2022/05/20 03:05:00;;;;;;;5.95;2.45;;;;;;;;;;6065608;23;20025;-62
2022/05/20 03:07:26;;;;;;;4.22;2.83;;;;;;;;;;6065501;23;20003;-62
2022/05/20 03:09:52;;;;;;;7.70;3.42;;;;;;;;;;6065415;23;20007;-63
2022/05/20 03:12:19;;;;;;;4.72;3.33;;;;;;;;;;6065739;23;20155;-63
2022/05/20 03:14:45;;;;;;;3.72;2.60;;;;;;;;;;6065218;23;20003;-62
2022/05/20 03:17:11;;;;;;;5.60;3.45;;;;;;;;;;6065601;23;20011;-62
2022/05/20 03:19:38;;;;;;;7.13;2.92;;;;;;;;;;6066256;23;20066;-61
2022/05/20 03:22:05;;;;;;;5.40;2.80;;;;;;;;;;6065365;23;20509;-62
2022/05/20 03:24:32;;;;;;;5.88;2.70;;;;;;;;;;6065214;23;20046;-63
2022/05/20 03:26:58;;;;;;;5.93;2.58;;;;;;;;;;6065496;23;20509;-62
2022/05/20 03:29:25;;;;;;;4.55;3.20;;;;;;;;;;6065393;23;20013;-64
2022/05/20 03:31:51;;;;;;;4.50;2.95;;;;;;;;;;6064959;23;20071;-65
2022/05/20 03:34:19;;;;;;;4.97;3.03;;;;;;;;;;6041403;23;20006;-62
2022/05/20 03:36:46;;;;;;;6.93;3.05;;;;;;;;;;6130141;23;20025;-62
2022/05/20 03:39:14;;;;;;;6.88;3.35;;;;;;;;;;6155344;23;20024;-61
2022/05/20 03:41:40;;;;;;;8.02;3.10;;;;;;;;;;6155704;23;20001;-65
2022/05/20 03:44:08;;;;;;;6.85;3.30;;;;;;;;;;6154932;23;20048;-64
2022/05/20 03:46:39;;;;;;;3.25;2.72;;;;;;;;;;6155321;23;20040;-64
2022/05/20 03:49:05;;;;;;;3.67;2.33;;;;;;;;;;6155380;23;20002;-63
2022/05/20 03:51:31;;;;;;;5.88;4.28;;;;;;;;;;6155464;23;20455;-63
2022/05/20 03:53:57;;;;;;;4.72;3.47;;;;;;;;;;6155177;23;20021;-63
2022/05/20 03:56:23;;;;;;;5.78;3.10;;;;;;;;;;6156262;23;20017;-63
2022/05/20 03:58:49;;;;;;;5.60;3.33;;;;;;;;;;6131082;23;20327;-62
2022/05/20 04:04:00;;;;;;;7.32;3.60;;;;;;;;;;6157149;23;20028;-64
2022/05/20 04:06:26;;;;;;;6.07;3.40;;;;;;;;;;6157037;23;20080;-62
2022/05/20 04:08:52;;;;;;;9.85;4.50;;;;;;;;;;6157572;23;20376;-63
2022/05/20 04:11:18;;;;;;;5.97;3.85;;;;;;;;;;6157174;23;19998;-62
2022/05/20 04:13:45;;;;;;;5.20;3.60;;;;;;;;;;6157244;23;20318;-62
2022/05/20 04:16:12;;;;;;;5.20;3.42;;;;;;;;;;6157090;23;20008;-62
2022/05/20 04:18:38;;;;;;;9.88;6.80;;;;;;;;;;6157142;23;20025;-63
2022/05/20 04:21:04;;;;;;;10.93;5.22;;;;;;;;;;6157047;23;20056;-62
2022/05/20 04:23:31;;;;;;;11.30;4.10;;;;;;;;;;6157080;23;20001;-66
2022/05/20 04:25:57;;;;;;;7.95;3.60;;;;;;;;;;6156818;23;20006;-62
2022/05/20 04:28:23;;;;;;;7.22;4.60;;;;;;;;;;6157315;23;20016;-62
2022/05/20 04:30:51;;;;;;;4.53;3.42;;;;;;;;;;6156447;23;20018;-62
2022/05/20 04:33:17;;;;;;;10.48;3.70;;;;;;;;;;6156912;23;20008;-63
2022/05/20 04:35:44;;;;;;;8.38;4.07;;;;;;;;;;6156970;23;20001;-63
2022/05/20 04:38:10;;;;;;;11.57;5.60;;;;;;;;;;6156973;23;20376;-63
2022/05/20 04:40:36;;;;;;;10.90;4.90;;;;;;;;;;6157033;23;19997;-65
2022/05/20 04:48:31;;;;;;;13.57;3.95;;;;;;;;;;6157013;23;20068;-62
2022/05/20 04:50:57;;;;;;;5.05;3.67;;;;;;;;;;6156801;23;20005;-64
2022/05/20 04:56:08;;;;;;;6.63;3.65;;;;;;;;;;6156759;23;20125;-63
2022/05/20 04:58:35;;;;;;;8.90;3.65;;;;;;;;;;6156768;23;20495;-62
2022/05/20 05:01:02;;;;;;;7.47;3.58;;;;;;;;;;6156582;23;20017;-62
2022/05/20 05:03:28;;;;;;;8.85;4.13;;;;;;;;;;6156709;23;20009;-62
2022/05/20 05:05:54;;;;;;;8.90;3.60;;;;;;;;;;6156813;23;20001;-63
2022/05/20 05:08:20;;;;;;;6.68;3.35;;;;;;;;;;6156046;23;20508;-63
2022/05/20 05:10:46;;;;;;;8.90;3.50;;;;;;;;;;6156766;23;20306;-63
2022/05/20 05:13:14;;;;;;;6.25;3.20;;;;;;;;;;6157053;23;20001;-63
2022/05/20 05:15:43;;;;;;;8.48;3.53;;;;;;;;;;6156599;23;20009;-63
2022/05/20 05:18:11;;;;;;;20.27;4.78;;;;;;;;;;6156376;23;20002;-63
2022/05/20 05:20:40;;;;;;;7.25;3.30;;;;;;;;;;6156376;23;20037;-63
2022/05/20 05:23:06;;;;;;;9.02;4.07;;;;;;;;;;6156667;23;20029;-63
2022/05/20 05:25:33;;;;;;;5.03;3.17;;;;;;;;;;6156590;23;20012;-63
2022/05/20 05:28:00;;;;;;;4.95;3.30;;;;;;;;;;6156467;23;19997;-63
2022/05/20 05:30:27;;;;;;;12.52;3.10;;;;;;;;;;6156170;23;20021;-63
2022/05/20 05:32:53;;;;;;;10.32;4.38;;;;;;;;;;6130154;23;20016;-63
2022/05/20 05:35:21;;;;;;;7.35;3.17;;;;;;;;;;6156459;23;20005;-65
2022/05/20 05:37:47;;;;;;;6.70;3.50;;;;;;;;;;6156404;23;19994;-64
2022/05/20 05:40:14;;;;;;;6.32;3.10;;;;;;;;;;6156355;23;20033;-63
2022/05/20 05:42:44;;;;;;;3.90;3.10;;;;;;;;;;6156339;23;20060;-63
2022/05/20 05:45:11;;;;;;;6.47;3.08;;;;;;;;;;6156402;23;20013;-63
2022/05/20 05:47:37;;;;;;;5.57;3.92;;;;;;;;;;6130169;23;20002;-63
2022/05/20 05:50:04;;;;;;;6.53;3.80;;;;;;;;;;6156022;23;20006;-62
2022/05/20 05:52:29;;;;;;;5.80;3.05;;;409.90;1868.80;;;;;;6156213;23;20084;-63
2022/05/20 05:54:55;;;;;;;17.23;4.63;;;410.00;1843.20;;;;;;6130508;23;20005;-63
2022/05/20 05:57:21;;;;;;;11.13;4.22;;;410.10;1868.80;;;;;;6156318;23;20005;-64
2022/05/20 05:59:47;;;;;;;18.55;4.22;;;410.30;1843.20;;;;;;6155747;23;20036;-63
2022/05/20 06:02:12;;;;;;;18.63;4.70;;;410.40;1868.80;;;;;;6129181;23;20017;-63
2022/05/20 06:04:38;;;;;;;25.55;8.50;;;410.50;1868.80;;;;;;6155719;23;20010;-63
2022/05/20 06:07:05;;;;;;;13.40;9.82;;;435.20;1868.80;;;;;;6155566;23;20144;-64
2022/05/20 06:09:31;;;;;;;7.78;4.28;;;435.30;1868.80;;;;;;6155090;23;20392;-64
2022/05/20 06:11:57;;;;;;;23.15;11.77;;;435.50;1868.80;;;;;;6154921;23;20053;-63
2022/05/20 06:14:23;;;;;;;32.65;10.35;;;;;;;;;;6156038;23;20006;-63
2022/05/20 06:16:49;;;;;;;9.40;4.72;;;435.70;1868.80;;;;;;6155665;23;20049;-65
2022/05/20 06:19:14;;;;;;;15.50;5.97;;;436.00;1843.20;;;;;;6155918;23;20373;-63
2022/05/20 06:21:40;;;;;;;14.63;4.80;;;435.90;2048.00;;;;;;6128980;23;19998;-63
2022/05/20 06:24:08;;;;;;;8.65;5.03;;;436.10;2022.40;;;;;;6155647;23;20013;-64
2022/05/20 06:26:35;;;;;;;14.18;4.07;;;460.90;1920.00;;;;;;6155871;23;19998;-65
2022/05/20 06:29:00;;;;;;;10.57;5.43;;;460.90;1792.00;;;;;;6155080;23;20421;-62
2022/05/20 06:31:26;;;;;;;76.13;32.28;;;461.10;1817.60;;;;;;6155279;23;20033;-63
2022/05/20 06:33:52;;;;;;;126.60;65.30;;;;;;;;;;6155413;23;20032;-65
2022/05/20 06:41:47;;;;;;;29.38;13.65;;;461.50;1817.60;;;;;;6155697;23;20024;-62
2022/05/20 06:44:14;;;;;;;22.05;10.68;;;486.40;1740.80;;;;;;6155835;23;20045;-61
2022/05/20 06:46:40;;;;;;;45.95;22.70;;;486.40;1740.80;;;;;;6155268;23;20005;-63
2022/05/20 06:49:06;;;;;;;41.55;24.08;;;486.40;1740.80;;;;;;6154852;23;20365;-61
2022/05/20 06:51:33;;;;;;;118.97;71.15;;;;;;;;;;6129649;23;20088;-61
2022/05/20 06:54:01;;;;;;;143.90;91.35;;;;;;;;;;6155381;23;20065;-61
2022/05/20 06:56:28;;;;;;;122.07;57.13;;;487.10;1766.40;;;;;;6154644;23;20056;-63
2022/05/20 06:58:55;;;;;;;19.58;11.63;;;487.00;1920.00;;;;;;6155404;23;20009;-65
2022/05/20 07:01:21;;;;;;;52.58;27.95;;;487.00;1792.00;;;;;;6155262;23;20006;-65
2022/05/20 07:03:47;;;;;;;21.42;12.30;;;487.10;1766.40;;;;;;6154945;23;20064;-64
2022/05/20 07:06:14;;;;;;;35.58;20.92;;;487.20;1766.40;;;;;;6155863;23;20020;-65
2022/05/20 07:08:40;;;;;;;23.63;11.73;;;512.00;1766.40;;;;;;6155726;23;20006;-64
2022/05/20 07:11:07;;;;;;;23.92;11.52;;;512.10;1766.40;;;;;;6155736;23;20321;-64
2022/05/20 07:13:33;;;;;;;10.35;5.97;;;512.20;1766.40;;;;;;6155553;23;20001;-64
2022/05/20 07:16:01;;;;;;;16.92;6.22;;;;;;;;;;6155260;23;20330;-65
2022/05/20 07:18:28;;;;;;;36.00;19.38;;;512.80;1792.00;;;;;;6154859;23;20424;-65
2022/05/20 07:20:54;;;;;;;34.53;12.50;;;512.60;1766.40;;;;;;6155892;23;20012;-66
2022/05/20 07:23:24;;;;;;;21.92;8.25;;;512.90;1766.40;;;;;;6154329;23;19997;-62
2022/05/20 07:25:51;;;;;;;25.38;13.45;;;;;;;;;;6155576;23;20018;-62
2022/05/20 07:28:17;;;;;;;18.52;7.25;;;;;;;;;;6155553;23;20008;-65
2022/05/20 07:30:43;;;;;;;18.77;9.43;;;;;;;;;;6153988;23;20025;-64
2022/05/20 07:33:09;;;;;;;26.17;11.20;;;;;;;;;;6154991;23;20001;-64
2022/05/20 07:35:36;;;;;;;14.80;7.07;;;;;;;;;;6155045;23;20005;-62
2022/05/20 07:38:02;;;;;;;23.13;6.43;;;538.20;1766.40;;;;;;6155257;23;20476;-63
2022/05/20 07:40:31;;;;;;;24.08;6.72;;;;;;;;;;6155414;23;19997;-63
2022/05/20 07:42:57;;;;;;;36.03;11.73;;;;;;;;;;6155340;23;20052;-64
2022/05/20 07:45:24;;;;;;;19.67;6.72;;;;;;;;;;6155217;23;20013;-64
2022/05/20 07:47:50;;;;;;;17.00;8.40;;;;;;;;;;6154911;23;20370;-63
2022/05/20 07:50:17;;;;;;;18.25;9.88;;;;;;;;;;6154864;23;20055;-64
2022/05/20 07:55:37;;;;;;;11.70;7.35;;;563.50;1715.20;;;;;;6155279;23;20017;-63
2022/05/20 07:58:06;;;;;;;46.85;16.95;;;563.60;1715.20;;;;;;6155490;23;20005;-64
2022/05/20 08:00:33;;;;;;;14.55;7.97;;;;;;;;;;6154802;23;20041;-64
2022/05/20 08:03:01;;;;;;;37.65;9.57;;;;;;;;;;6155122;23;20008;-64
2022/05/20 08:05:28;;;;;;;34.20;11.45;;;;;;;;;;6155107;23;20070;-64
2022/05/20 08:07:56;;;;;;;15.30;7.88;;;;;;;;;;6155450;23;20084;-64
2022/05/20 08:10:23;;;;;;;21.27;13.15;;;;;;;;;;6155264;23;20081;-64
2022/05/20 08:12:49;;;;;;;46.17;15.82;;;;;;;;;;6154727;23;19994;-64
2022/05/20 08:15:16;;;;;;;10.45;5.43;;;;;;;;;;6154706;23;20004;-64
2022/05/20 08:17:43;;;;;;;12.60;6.13;;;;;;;;;;6154877;23;20013;-65
2022/05/20 08:20:13;;;;;;;21.17;8.93;;;;;;;;;;6155179;23;19998;-64
2022/05/20 08:22:39;;;;;;;14.13;7.22;;;;;;;;;;6155017;23;20016;-65
2022/05/20 08:25:06;;;;;;;50.10;18.98;;;;;;;;;;6155133;23;20389;-65
2022/05/20 08:27:32;;;;;;;7.90;4.25;;;;;;;;;;6153985;23;20009;-65
2022/05/20 08:30:02;;;;;;;20.02;8.35;;;;;;;;;;6154461;23;20037;-65
2022/05/20 08:32:28;;;;;;;36.78;20.45;;;;;;;;;;6154932;23;20009;-65
2022/05/20 08:34:54;;;;;;;46.78;20.83;;;;;;;;;;6155494;23;20328;-65
2022/05/20 08:37:20;;;;;;;16.35;5.38;;;;;;;;;;6155287;23;20028;-65
2022/05/20 08:39:46;;;;;;;24.65;8.82;;;;;;;;;;6155322;23;19998;-64
2022/05/20 08:42:14;;;;;;;33.10;14.88;;;;;;;;;;6155046;23;20002;-64
2022/05/20 08:44:41;;;;;;;30.83;11.15;;;;;;;;;;6156664;23;20188;-65
2022/05/20 08:47:07;;;;;;;18.88;5.80;;;;;;;;;;6156540;23;20421;-65
2022/05/20 08:49:33;;;;;;;25.83;5.72;;;;;;;;;;6156794;23;20013;-65
2022/05/20 08:51:59;;;;;;;16.08;6.57;;;;;;;;;;6156888;23;20029;-65
2022/05/20 08:54:25;;;;;;;19.17;11.13;;;;;;;;;;6130772;23;20001;-65
2022/05/20 08:56:51;;;;;;;10.85;6.22;;;;;;;;;;6156498;23;20005;-64
2022/05/20 08:59:19;;;;;;;12.20;5.20;;;;;;;;;;6156549;23;19997;-64
2022/05/20 09:01:48;;;;;;;16.15;8.00;;;;;;;;;;6155923;23;20016;-64
2022/05/20 09:04:15;;;;;;;17.38;7.97;;;;;;;;;;6156587;23;20021;-64
2022/05/20 09:06:57;;;;;;;18.77;6.68;;;;;;;;;;6156561;23;20428;-65
2022/05/20 09:09:27;;;;;;;8.57;5.45;;;;;;;;;;6156089;23;20005;-65
2022/05/20 09:11:57;;;;;;;22.70;6.45;;;;;;;;;;6156675;23;20012;-63
2022/05/20 09:17:09;;;;;;;12.77;6.97;;;;;;;;;;6156313;23;20499;-64
2022/05/20 09:19:35;;;;;;;26.52;5.75;;;;;;;;;;6156979;23;20008;-65
2022/05/20 09:22:04;;;;;;;16.83;7.10;;;;;;;;;;6156272;23;20001;-65
2022/05/20 09:24:35;;;;;;;41.97;26.92;;;;;;;;;;6156577;23;20005;-65
2022/05/20 09:27:06;;;;;;;64.05;41.17;;;;;;;;;;6156301;23;20001;-62
2022/05/20 09:29:34;;;;;;;26.00;17.10;;;;;;;;;;6156266;23;20424;-65
2022/05/20 09:32:03;;;;;;;10.80;6.30;;;;;;;;;;6155814;23;20016;-65
2022/05/20 09:34:38;;;;;;;26.35;12.82;;;;;;;;;;6156294;23;20012;-66
2022/05/20 09:37:05;;;;;;;27.85;8.05;;;;;;;;;;6156021;23;20008;-65
2022/05/20 09:39:39;;;;;;;80.72;54.83;;;;;;;;;;6156151;23;20025;-66
2022/05/20 09:42:15;;;;;;;42.13;26.20;;;;;;;;;;6129739;23;20012;-65
2022/05/20 09:44:46;;;;;;;50.13;36.03;;;;;;;;;;6156227;23;20072;-66
2022/05/20 09:47:18;;;;;;;38.03;27.13;;;;;;;;;;6156296;23;20008;-66
2022/05/20 09:50:06;;;;;;;10.43;6.65;;;;;;;;;;6156163;23;20325;-66
2022/05/20 09:52:50;;;;;;;42.33;27.13;;;;;;;;;;6156141;23;20487;-66
2022/05/20 09:55:43;;;;;;;11.95;10.00;;;;;;;;;;6155834;23;20005;-66
2022/05/20 09:58:15;;;;;;;17.92;12.25;;;;;;;;;;6150791;23;20013;-66
2022/05/20 10:00:44;;;;;;;41.08;27.45;;;;;;;;;;6156193;23;20029;-66
2022/05/20 10:03:16;;;;;;;41.45;16.77;;;;;;;;;;6155832;23;20006;-66
2022/05/20 10:05:42;;;;;;;29.55;17.88;;;;;;;;;;6155875;23;20041;-66
2022/05/20 10:08:12;;;;;;;35.67;23.85;;;;;;;;;;6155754;23;20001;-66
2022/05/20 10:10:38;;;;;;;20.70;11.02;;;;;;;;;;6155701;23;20001;-65
2022/05/20 10:13:06;;;;;;;33.17;22.02;;;;;;;;;;6155968;23;20134;-65
2022/05/20 10:15:34;;;;;;;6.78;4.40;;;;;;;;;;6156235;23;20013;-66
2022/05/20 10:18:15;;;;;;;18.10;9.57;;;;;;;;;;6155847;23;20004;-66
2022/05/20 10:21:00;;;;;;;24.70;12.00;;;;;;;;;;6155910;23;20032;-66
2022/05/20 10:23:34;;;;;;;38.78;27.20;;;;;;;;;;6155777;23;20044;-65
2022/05/20 10:26:03;;;;;;;45.95;20.15;;;;;;;;;;6155663;23;20452;-66
2022/05/20 10:34:06;;;;;;;31.27;23.27;;;;;;;;;;6155735;23;20069;-66
2022/05/20 10:36:41;;;;;;;35.78;23.70;;;;;;;;;;6155691;23;20036;-66
2022/05/20 10:39:30;;;;;;;18.88;11.68;;;;;;;;;;6155535;23;20012;-66
2022/05/20 10:42:12;;;;;;;29.83;18.25;;;;;;;;;;6008658;23;20015;-66
2022/05/20 10:50:26;;;;;;;24.35;15.77;;;;;;;;;;6008344;23;20018;-66
2022/05/20 10:53:08;;;;;;;35.83;13.98;;;;;;;;;;6008626;23;20083;-66
2022/05/20 10:55:53;;;;;;;9.85;6.90;;;;;;;;;;5984814;23;20012;-66
2022/05/20 10:58:21;;;;;;;25.33;13.73;;;;;;;;;;6008550;23;20014;-66
2022/05/20 11:00:52;;;;;;;16.17;10.50;;;;;;;;;;6008405;23;20528;-66
2022/05/20 11:03:24;;;;;;;11.90;5.90;;;;;;;;;;6008839;23;20046;-66
2022/05/20 11:06:08;;;;;;;16.45;9.60;;;;;;;;;;6008121;23;20091;-66
2022/05/20 11:08:45;;;;;;;13.63;8.30;;;;;;;;;;6008355;23;20000;-65
2022/05/20 11:11:37;;;;;;;21.60;12.57;;;;;;;;;;6008489;23;20059;-66
2022/05/20 11:14:32;;;;;;;22.33;10.27;;;;;;;;;;6004601;23;20056;-66
2022/05/20 11:17:16;;;;;;;21.88;9.48;;;;;;;;;;6008456;23;20008;-65
2022/05/20 11:19:45;;;;;;;11.98;6.68;;;;;;;;;;6128584;23;20436;-66
2022/05/20 11:22:24;;;;;;;16.10;10.13;;;;;;;;;;6155400;23;20040;-66
2022/05/20 11:24:53;;;;;;;6.38;4.20;;;;;;;;;;6155272;23;20033;-66
2022/05/20 11:27:45;;;;;;;19.40;9.10;;;;;;;;;;6155326;23;19998;-66
2022/05/20 11:30:18;;;;;;;15.23;9.02;;;;;;;;;;6150050;23;20021;-66
2022/05/20 11:32:47;;;;;;;31.65;9.07;;;;;;;;;;6155570;23;20017;-66
2022/05/20 11:35:19;;;;;;;32.78;8.57;;;;;;;;;;6155615;23;20013;-66
2022/05/20 11:37:51;;;;;;;13.30;7.13;;;;;;;;;;6129261;23;20005;-67
2022/05/20 11:40:17;;;;;;;16.20;5.45;;;;;;;;;;6155636;23;20313;-65
2022/05/20 11:43:02;;;;;;;14.35;7.90;;;;;;;;;;6155541;23;20081;-66
2022/05/20 11:45:46;;;;;;;24.70;7.95;;;;;;;;;;6155308;23;20013;-66
2022/05/20 11:48:12;;;;;;;14.07;5.65;;;;;;;;;;6155226;23;20432;-65
2022/05/20 11:50:51;;;;;;;46.33;6.97;;;;;;;;;;6155315;23;20005;-65
2022/05/20 11:53:21;;;;;;;23.52;8.05;;;;;;;;;;6155075;23;19998;-66
2022/05/20 11:55:51;;;;;;;9.70;4.85;;;;;;;;;;6155654;23;20010;-66
2022/05/20 11:58:28;;;;;;;12.23;5.97;;;;;;;;;;6155074;23;20437;-65
2022/05/20 12:00:55;;;;;;;13.20;6.07;;;;;;;;;;6155464;23;20088;-66
2022/05/20 12:04:06;;;;;;;16.13;6.90;;;;;;;;;;6155176;23;20006;-66
2022/05/20 12:06:19;;;;;;;11.30;5.63;;;;;;;;;;6155026;23;20375;-66
2022/05/20 12:08:46;;;;;;;14.80;5.50;;;;;;;;;;6155365;23;20424;-66
2022/05/20 12:11:33;;;;;;;12.18;5.40;;;;;;;;;;6155166;23;20073;-66
2022/05/20 12:13:59;;;;;;;23.27;7.25;;;;;;;;;;6155191;23;20013;-66
2022/05/20 12:16:27;;;;;;;16.90;6.22;;;;;;;;;;6155199;23;20002;-66
2022/05/20 12:24:49;;;;;;;18.65;6.13;;;;;;;;;;6156926;23;20414;-66
2022/05/20 12:27:24;;;;;;;11.23;3.92;;;;;;;;;;6156884;23;20048;-66
2022/05/20 12:30:03;;;;;;;12.18;5.60;;;;;;;;;;6156608;23;20757;-66
2022/05/20 12:32:40;;;;;;;11.40;4.95;;;;;;;;;;6157110;23;20005;-66
2022/05/20 12:35:06;;;;;;;11.20;5.47;;;;;;;;;;6156567;23;20007;-66
2022/05/20 12:37:42;;;;;;;5.93;3.85;;;;;;;;;;6156601;23;20005;-66
2022/05/20 12:40:26;;;;;;;4.95;2.83;;;;;;;;;;6156820;23;20413;-67
2022/05/20 12:42:56;;;;;;;9.50;4.22;;;;;;;;;;6156955;23;20034;-67
2022/05/20 12:45:23;;;;;;;11.65;4.45;;;;;;;;;;6156528;23;20010;-66
2022/05/20 12:47:49;;;;;;;20.42;4.80;;;;;;;;;;6156876;23;20009;-67
2022/05/20 12:50:15;;;;;;;11.48;4.15;;;;;;;;;;6156748;23;20005;-66
2022/05/20 12:52:46;;;;;;;7.50;3.20;;;;;;;;;;6156990;23;20483;-66
2022/05/20 12:55:15;;;;;;;5.07;3.88;;;;;;;;;;6156478;23;20013;-67
2022/05/20 12:57:49;;;;;;;14.05;4.60;;;;;;;;;;6157003;23;20028;-66
2022/05/20 13:00:16;;;;;;;15.38;5.35;;;;;;;;;;6156786;23;20009;-66
2022/05/20 13:02:44;;;;;;;6.47;3.78;;;;;;;;;;6156483;23;20001;-66
2022/05/20 13:05:20;;;;;;;8.23;3.63;;;;;;;;;;6156012;23;20345;-67
2022/05/20 13:07:47;;;;;;;28.30;5.15;;;;;;;;;;6156425;23;20448;-68
2022/05/20 13:10:39;;;;;;;8.60;3.60;;;;;;;;;;6156674;23;20002;-66
2022/05/20 13:13:05;;;;;;;12.45;3.70;;;;;;;;;;6151246;23;20002;-66
2022/05/20 13:15:32;;;;;;;24.17;4.95;;;;;;;;;;6156717;23;20002;-66
2022/05/20 13:17:59;;;;;;;10.77;3.85;;;;;;;;;;6156828;23;20008;-66
2022/05/20 13:20:26;;;;;;;5.45;3.03;;;;;;;;;;6156387;23;20421;-66
2022/05/20 13:22:52;;;;;;;21.60;5.20;;;;;;;;;;6156404;23;20448;-66
2022/05/20 13:25:19;;;;;;;5.22;2.65;;;;;;;;;;6156362;23;20013;-66
2022/05/20 13:27:46;;;;;;;15.05;4.22;;;;;;;;;;6156507;23;20081;-66
2022/05/20 13:30:14;;;;;;;10.65;3.95;;;;;;;;;;6155716;23;20026;-66
2022/05/20 13:32:41;;;;;;;7.05;2.92;;;;;;;;;;6156329;23;20008;-66
2022/05/20 13:35:07;;;;;;;9.15;3.55;;;;;;;;;;6156090;23;20093;-66
2022/05/20 13:37:38;;;;;;;13.77;4.07;;;;;;;;;;6156377;23;20006;-66
2022/05/20 13:40:28;;;;;;;16.00;3.90;;;;;;;;;;6156284;23;20080;-66
2022/05/20 13:42:55;;;;;;;12.73;3.85;;;;;;;;;;6156386;23;20393;-66
2022/05/20 13:49:13;;;;;;;5.30;3.42;;;;;;;;;;6129970;23;20009;-66
2022/05/20 13:51:21;;;;;;;8.77;4.20;;;;;;;;;;6156267;23;20021;-66
2022/05/20 13:53:48;;;;;;;8.40;3.17;;;;;;;;;;6156048;23;20426;-66
2022/05/20 13:56:15;;;;;;;8.75;3.38;;;;;;;;;;6156152;23;20033;-67
2022/05/20 13:58:42;;;;;;;8.05;3.65;;;;;;;;;;6156488;23;19997;-66
2022/05/20 14:01:10;;;;;;;14.75;3.80;;;;;;;;;;6156235;23;20014;-66
2022/05/20 14:03:39;;;;;;;5.55;3.38;;;;;;;;;;6155748;23;20409;-66
2022/05/20 14:06:16;;;;;;;6.75;3.03;;;;;;;;;;6156065;23;20016;-67
2022/05/20 14:08:44;;;;;;;6.57;3.80;;;;;;;;;;6156423;23;19998;-66
2022/05/20 14:11:12;;;;;;;8.40;3.53;;;;;;;;;;6156201;23;20430;-66
2022/05/20 14:13:40;;;;;;;3.05;2.60;;;;;;;;;;6155839;23;20001;-66
2022/05/20 14:16:11;;;;;;;4.60;3.35;;;;;;;;;;6155872;23;20052;-66
2022/05/20 14:18:39;;;;;;;7.47;2.70;;;;;;;;;;6156099;23;20080;-67
2022/05/20 14:21:18;;;;;;;8.00;3.72;;;;;;;;;;6155801;23;20009;-66
2022/05/20 14:23:54;;;;;;;6.78;3.63;;;;;;;;;;6129641;23;20016;-66
2022/05/20 14:26:36;;;;;;;10.70;4.25;;;;;;;;;;6156235;23;20012;-67
2022/05/20 14:29:07;;;;;;;7.22;3.40;;;;;;;;;;6155618;23;20072;-66
2022/05/20 14:31:36;;;;;;;6.63;3.80;;;;;;;;;;6155612;23;20365;-66
2022/05/20 14:34:25;;;;;;;8.40;4.03;;;;;;;;;;6155770;23;20052;-66
2022/05/20 14:36:53;;;;;;;8.55;4.07;;;;;;;;;;6037260;23;20008;-67
2022/05/20 14:39:20;;;;;;;6.82;3.28;;;;;;;;;;6036868;23;20000;-65
2022/05/20 14:42:05;;;;;;;10.10;4.18;;;;;;;;;;6037054;23;20079;-66
2022/05/20 14:44:31;;;;;;;7.20;3.90;;;;;;;;;;6037026;23;20422;-66
2022/05/20 14:47:17;;;;;;;7.70;3.65;;;;;;;;;;6037124;23;20315;-66
2022/05/20 14:49:51;;;;;;;4.88;3.60;;;;;;;;;;6036840;23;20003;-67
2022/05/20 14:52:23;;;;;;;9.88;4.75;;;;;;;;;;6013263;23;20502;-66
2022/05/20 14:54:49;;;;;;;5.35;3.95;;;;;;;;;;6037008;23;20011;-66
2022/05/20 14:57:35;;;;;;;5.28;3.55;;;;;;;;;;6037090;23;20339;-64
2022/05/20 15:00:14;;;;;;;5.13;4.00;;;;;;;;;;6036733;23;20007;-66
2022/05/20 15:02:40;;;;;;;12.77;4.63;;;;;;;;;;6036825;23;20090;-67
2022/05/20 15:05:07;;;;;;;12.13;4.18;;;;;;;;;;6036763;23;20019;-66
2022/05/20 15:07:33;;;;;;;10.50;4.50;;;;;;;;;;6036931;23;20442;-66
2022/05/20 15:10:00;;;;;;;12.93;5.63;;;;;;;;;;6037102;23;20008;-66
2022/05/20 15:12:26;;;;;;;8.82;3.90;;;;;;;;;;6036800;23;20067;-66